createdAt,value
2022-08-28T00:19:53.223Z,14.02
2022-08-28T00:34:37.441Z,13.42
2022-08-28T01:20:06.047Z,12.33
2022-08-28T01:34:58.017Z,11.98
2022-08-28T01:49:49.834Z,11.99
2022-08-28T02:04:43.344Z,11.51
2022-08-28T02:19:35.435Z,12.13
2022-08-28T02:34:26.242Z,10.19
2022-08-28T02:49:17.872Z,11.27
2022-08-28T03:04:10.159Z,13.00
2022-08-28T03:19:02.191Z,12.00
2022-08-28T03:48:46.289Z,13.96
2022-08-28T04:03:38.744Z,13.83
2022-08-28T04:18:31.660Z,12.40
2022-08-28T04:33:23.821Z,10.91
2022-08-28T04:48:15.596Z,10.92
2022-08-28T05:03:06.716Z,11.04
2022-08-28T05:17:59.042Z,10.27
2022-08-28T05:32:50.754Z,10.57
2022-08-28T05:47:42.631Z,9.87
2022-08-28T06:02:36.276Z,8.58
2022-08-28T06:17:31.476Z,6.83
2022-08-28T06:32:23.947Z,8.11
2022-08-28T06:47:15.389Z,7.37
2022-08-28T07:02:07.982Z,6.86
2022-08-28T07:16:59.539Z,7.59
2022-08-28T07:31:51.516Z,7.86
2022-08-28T07:46:43.132Z,7.47
2022-08-28T08:01:37.650Z,8.76
2022-08-28T08:16:31.618Z,8.09
2022-08-28T08:31:28.594Z,10.27
2022-08-28T08:46:24.125Z,9.74
2022-08-28T09:01:34.294Z,9.81
2022-08-28T09:16:31.479Z,8.31
2022-08-28T09:31:29.183Z,8.57
2022-08-28T09:46:25.317Z,11.64
2022-08-28T10:01:28.056Z,7.34
2022-08-28T10:16:27.772Z,10.41
2022-08-28T10:31:35.436Z,9.31
2022-08-28T10:46:47.549Z,6.37
2022-08-28T11:17:01.018Z,7.75
2022-08-28T11:31:56.345Z,7.89
2022-08-28T11:46:49.592Z,6.57
2022-08-28T12:01:41.561Z,8.34
2022-08-28T12:17:00.942Z,7.11
2022-08-28T12:32:13.353Z,6.84
2022-08-28T12:47:09.977Z,6.50
2022-08-28T13:02:04.718Z,7.34
2022-08-28T13:17:01.222Z,7.91
2022-08-28T13:31:56.213Z,7.24
2022-08-28T13:46:52.342Z,5.82
2022-08-28T14:02:03.720Z,5.74
2022-08-28T14:16:59.122Z,7.54
2022-08-28T14:31:52.490Z,6.49
2022-08-28T14:46:45.251Z,5.20
2022-08-28T15:01:40.641Z,7.87
2022-08-28T15:16:31.619Z,5.70
2022-08-28T15:31:25.627Z,5.57
2022-08-28T15:46:17.241Z,5.54
2022-08-28T16:01:06.725Z,5.36
2022-08-28T16:15:57.540Z,6.10
2022-08-28T16:30:49.061Z,5.08
2022-08-28T16:45:41.381Z,5.91
2022-08-28T17:00:32.950Z,4.69
2022-08-28T17:30:49.691Z,5.11
2022-08-28T17:45:41.117Z,9.19
2022-08-28T18:00:35.763Z,4.57
2022-08-28T18:15:26.723Z,4.76
2022-08-28T19:00:52.968Z,4.71
2022-08-28T19:15:44.552Z,5.66
2022-08-28T19:30:35.810Z,5.35
2022-08-28T19:45:26.636Z,5.20
2022-08-28T20:15:11.018Z,7.36
2022-08-28T20:30:07.148Z,5.62
2022-08-28T20:44:53.558Z,6.30
2022-08-28T20:59:45.591Z,6.18
2022-08-28T21:14:37.139Z,5.43
2022-08-28T21:29:28.787Z,6.66
2022-08-28T21:59:11.185Z,8.24
2022-08-28T22:28:54.998Z,6.70
2022-08-28T22:43:49.929Z,8.61
2022-08-28T22:58:42.625Z,7.62
2022-08-28T23:13:33.710Z,7.05
2022-08-28T23:28:24.755Z,6.48
2022-08-28T23:43:16.198Z,10.34
2022-08-28T23:58:07.504Z,6.57
